Time,TemperatureF,DewpointF,PressureIn,WindDirection,WindDirectionDegrees,WindSpeedMPH,WindSpeedGustMPH,Humidity,HourlyPrecipIn,Conditions,Clouds,dailyrainin,SolarRadiationWatts/m^2,SoftwareType,DateUTC
2013-05-16 00:10:00,73.5,71.0,29.85,SSE,159,3.0,-999.0,93,-99.99,,,0.19,0,weatherlink.com 1.10,2013-05-16 05:10:00,
2013-05-16 00:25:00,73.5,71.0,29.84,East,101,9.0,-999.0,93,-99.99,,,0.19,0,weatherlink.com 1.10,2013-05-16 05:25:00,
2013-05-16 00:40:00,73.5,71.0,29.83,South,182,5.0,-999.0,93,-99.99,,,0.19,0,weatherlink.com 1.10,2013-05-16 05:40:00,
2013-05-16 00:55:00,73.5,71.0,29.83,SSE,156,3.0,-999.0,93,-99.99,,,0.19,0,weatherlink.com 1.10,2013-05-16 05:55:00,
2013-05-16 01:10:00,73.5,71.0,29.82,SSE,151,7.0,-999.0,93,-99.99,,,0.19,0,weatherlink.com 1.10,2013-05-16 06:10:00,
2013-05-16 01:25:00,73.6,71.0,29.82,SSE,165,7.0,-999.0,92,-99.99,,,0.19,0,weatherlink.com 1.10,2013-05-16 06:25:00,
2013-05-16 01:40:00,73.7,71.0,29.82,ESE,121,2.0,-999.0,92,-99.99,,,0.19,0,weatherlink.com 1.10,2013-05-16 06:40:00,
2013-05-16 01:55:00,73.7,71.0,29.82,SSE,161,12.0,-999.0,91,-99.99,,,0.19,0,weatherlink.com 1.10,2013-05-16 06:55:00,
2013-05-16 02:10:00,73.6,71.0,29.81,South,171,1.0,-999.0,91,-99.99,,,0.19,0,weatherlink.com 1.10,2013-05-16 07:10:00,
2013-05-16 02:25:00,73.5,71.0,29.81,South,184,9.0,-999.0,91,-99.99,,,0.19,0,weatherlink.com 1.10,2013-05-16 07:25:00,
2013-05-16 02:40:00,73.5,71.0,29.80,SSE,149,5.0,-999.0,91,-99.99,,,0.19,0,weatherlink.com 1.10,2013-05-16 07:40:00,
2013-05-16 02:55:00,73.3,71.0,29.80,South,175,6.0,-999.0,91,-99.99,,,0.19,0,weatherlink.com 1.10,2013-05-16 07:55:00,
2013-05-16 03:10:00,73.3,71.0,29.80,SW,215,6.0,-999.0,92,-99.99,,,0.19,0,weatherlink.com 1.10,2013-05-16 08:10:00,
2013-05-16 03:25:00,73.5,71.0,29.80,South,172,5.0,-999.0,92,-99.99,,,0.19,0,weatherlink.com 1.10,2013-05-16 08:25:00,
2013-05-16 03:40:00,73.4,71.0,29.79,SSE,149,6.0,-999.0,91,-99.99,,,0.19,0,weatherlink.com 1.10,2013-05-16 08:40:00,
2013-05-16 03:55:00,73.3,71.0,29.80,SSE,164,4.0,-999.0,91,-99.99,,,0.19,0,weatherlink.com 1.10,2013-05-16 08:55:00,
2013-05-16 04:10:00,73.2,71.0,29.80,SE,136,0.0,-999.0,92,-99.99,,,0.19,0,weatherlink.com 1.10,2013-05-16 09:10:00,
2013-05-16 04:25:00,73.2,71.0,29.80,SSE,155,2.0,-999.0,92,-99.99,,,0.19,0,weatherlink.com 1.10,2013-05-16 09:25:00,
2013-05-16 04:40:00,73.2,71.0,29.78,SSE,150,4.0,-999.0,93,-99.99,,,0.19,0,weatherlink.com 1.10,2013-05-16 09:40:00,
2013-05-16 04:55:00,73.1,71.0,29.78,SSW,196,6.0,-999.0,93,-99.99,,,0.00,0,weatherlink.com 1.10,2013-05-16 09:55:00,
2013-05-16 05:11:00,72.9,71.0,29.77,South,180,3.0,-999.0,92,-99.99,,,0.00,0,weatherlink.com 1.10,2013-05-16 10:11:00,
2013-05-16 05:26:00,72.7,70.0,29.78,South,180,3.0,-999.0,92,-99.99,,,0.00,0,weatherlink.com 1.10,2013-05-16 10:26:00,
2013-05-16 05:41:00,72.7,71.0,29.77,SSE,165,5.0,-999.0,93,-99.99,,,0.00,0,weatherlink.com 1.10,2013-05-16 10:41:00,
2013-05-16 05:56:00,72.7,71.0,29.77,SSE,152,2.0,-999.0,93,-99.99,,,0.00,0,weatherlink.com 1.10,2013-05-16 10:56:00,
2013-05-16 06:11:00,72.6,71.0,29.78,South,171,9.0,-999.0,93,-99.99,,,0.00,0,weatherlink.com 1.10,2013-05-16 11:11:00,
2013-05-16 06:26:00,72.5,70.0,29.77,SSE,162,5.0,-999.0,93,-99.99,,,0.00,0,weatherlink.com 1.10,2013-05-16 11:26:00,
2013-05-16 06:41:00,72.4,70.0,29.77,SSE,161,9.0,-999.0,93,-99.99,,,0.00,0,weatherlink.com 1.10,2013-05-16 11:41:00,
2013-05-16 06:56:00,72.3,70.0,29.77,South,169,3.0,-999.0,93,-99.99,,,0.00,14,weatherlink.com 1.10,2013-05-16 11:56:00,
2013-05-16 07:11:00,72.4,70.0,29.77,South,169,3.0,-999.0,92,-99.99,,,0.00,26,weatherlink.com 1.10,2013-05-16 12:11:00,
2013-05-16 07:26:00,72.6,70.0,29.77,SE,144,10.0,-999.0,92,-99.99,,,0.00,42,weatherlink.com 1.10,2013-05-16 12:26:00,
2013-05-16 07:41:00,73.1,71.0,29.77,South,185,4.0,-999.0,92,-99.99,,,0.00,63,weatherlink.com 1.10,2013-05-16 12:41:00,
2013-05-16 07:56:00,73.7,71.0,29.79,SSE,150,5.0,-999.0,92,-99.99,,,0.00,90,weatherlink.com 1.10,2013-05-16 12:56:00,
2013-05-16 08:11:00,74.2,72.0,29.79,South,186,11.0,-999.0,91,-99.99,,,0.00,116,weatherlink.com 1.10,2013-05-16 13:11:00,
2013-05-16 08:26:00,74.8,71.0,29.79,South,183,7.0,-999.0,89,-99.99,,,0.00,141,weatherlink.com 1.10,2013-05-16 13:26:00,
2013-05-16 08:41:00,75.5,72.0,29.80,SSE,166,6.0,-999.0,88,-99.99,,,0.00,274,weatherlink.com 1.10,2013-05-16 13:41:00,
2013-05-16 08:56:00,76.6,72.0,29.79,SSW,206,7.0,-999.0,86,-99.99,,,0.00,427,weatherlink.com 1.10,2013-05-16 13:56:00,
2013-05-16 09:11:00,77.1,72.0,29.79,South,172,7.0,-999.0,84,-99.99,,,0.00,230,weatherlink.com 1.10,2013-05-16 14:11:00,
2013-05-16 09:26:00,78.2,72.0,29.80,South,186,13.0,-999.0,82,-99.99,,,0.00,508,weatherlink.com 1.10,2013-05-16 14:26:00,
2013-05-16 09:41:00,78.4,72.0,29.81,SSE,161,5.0,-999.0,81,-99.99,,,0.00,218,weatherlink.com 1.10,2013-05-16 14:41:00,
2013-05-16 09:56:00,79.7,73.0,29.81,SSE,157,4.0,-999.0,81,-99.99,,,0.00,661,weatherlink.com 1.10,2013-05-16 14:56:00,
2013-05-16 10:11:00,81.1,74.0,29.81,ESE,117,4.0,-999.0,78,-99.99,,,0.00,673,weatherlink.com 1.10,2013-05-16 15:11:00,
2013-05-16 10:26:00,82.3,74.0,29.80,South,173,5.0,-999.0,76,-99.99,,,0.00,810,weatherlink.com 1.10,2013-05-16 15:26:00,
2013-05-16 10:41:00,83.0,75.0,29.80,East,79,4.0,-999.0,76,-99.99,,,0.00,309,weatherlink.com 1.10,2013-05-16 15:41:00,
2013-05-16 10:56:00,82.1,74.0,29.80,SE,143,10.0,-999.0,76,-99.99,,,0.00,257,weatherlink.com 1.10,2013-05-16 15:56:00,
2013-05-16 11:12:00,81.3,74.0,29.80,SSE,152,7.0,-999.0,78,-99.99,,,0.00,322,weatherlink.com 1.10,2013-05-16 16:12:00,
2013-05-16 11:27:00,82.5,75.0,29.80,SSE,163,6.0,-999.0,78,-99.99,,,0.00,951,weatherlink.com 1.10,2013-05-16 16:27:00,
2013-05-16 11:42:00,82.3,74.0,29.79,ESE,121,7.0,-999.0,76,-99.99,,,0.00,320,weatherlink.com 1.10,2013-05-16 16:42:00,
2013-05-16 11:57:00,82.5,75.0,29.79,SE,124,4.0,-999.0,78,-99.99,,,0.00,403,weatherlink.com 1.10,2013-05-16 16:57:00,
2013-05-16 12:12:00,83.2,75.0,29.79,SSE,159,7.0,-999.0,76,-99.99,,,0.00,381,weatherlink.com 1.10,2013-05-16 17:12:00,
2013-05-16 12:27:00,82.3,75.0,29.79,South,186,8.0,-999.0,78,-99.99,,,0.00,487,weatherlink.com 1.10,2013-05-16 17:27:00,
2013-05-16 12:42:00,82.7,75.0,29.77,South,177,11.0,-999.0,78,-99.99,,,0.00,429,weatherlink.com 1.10,2013-05-16 17:42:00,
2013-05-16 12:57:00,82.8,76.0,29.77,East,98,11.0,-999.0,79,-99.99,,,0.00,512,weatherlink.com 1.10,2013-05-16 17:57:00,
2013-05-16 13:12:00,83.2,76.0,29.76,South,182,10.0,-999.0,78,-99.99,,,0.00,443,weatherlink.com 1.10,2013-05-16 18:12:00,
2013-05-16 13:27:00,84.0,76.0,29.76,SSE,153,6.0,-999.0,77,-99.99,,,0.00,1078,weatherlink.com 1.10,2013-05-16 18:27:00,
2013-05-16 13:42:00,84.4,76.0,29.76,SE,130,10.0,-999.0,75,-99.99,,,0.00,932,weatherlink.com 1.10,2013-05-16 18:42:00,
2013-05-16 13:57:00,84.2,76.0,29.75,SSE,165,11.0,-999.0,76,-99.99,,,0.00,517,weatherlink.com 1.10,2013-05-16 18:57:00,
2013-05-16 14:12:00,84.4,76.0,29.75,SSE,157,11.0,-999.0,76,-99.99,,,0.00,979,weatherlink.com 1.10,2013-05-16 19:12:00,
2013-05-16 14:27:00,84.8,76.0,29.75,SSW,213,5.0,-999.0,75,-99.99,,,0.00,944,weatherlink.com 1.10,2013-05-16 19:27:00,
2013-05-16 14:42:00,84.5,76.0,29.74,SSW,196,17.0,-999.0,76,-99.99,,,0.00,877,weatherlink.com 1.10,2013-05-16 19:42:00,
2013-05-16 14:57:00,84.5,76.0,29.74,SSE,159,5.0,-999.0,75,-99.99,,,0.00,907,weatherlink.com 1.10,2013-05-16 19:57:00,
2013-05-16 15:12:00,84.7,76.0,29.73,South,185,10.0,-999.0,75,-99.99,,,0.00,817,weatherlink.com 1.10,2013-05-16 20:12:00,
2013-05-16 15:27:00,84.6,76.0,29.73,SSE,167,13.0,-999.0,75,-99.99,,,0.00,814,weatherlink.com 1.10,2013-05-16 20:27:00,
2013-05-16 15:42:00,84.6,76.0,29.73,SE,126,7.0,-999.0,75,-99.99,,,0.00,782,weatherlink.com 1.10,2013-05-16 20:42:00,
2013-05-16 15:57:00,84.5,76.0,29.72,SSE,148,13.0,-999.0,76,-99.99,,,0.00,749,weatherlink.com 1.10,2013-05-16 20:57:00,
2013-05-16 16:12:00,84.1,76.0,29.71,South,173,9.0,-999.0,76,-99.99,,,0.00,712,weatherlink.com 1.10,2013-05-16 21:12:00,
2013-05-16 16:27:00,84.2,76.0,29.70,South,172,17.0,-999.0,76,-99.99,,,0.00,668,weatherlink.com 1.10,2013-05-16 21:27:00,
2013-05-16 16:42:00,83.9,76.0,29.70,SE,140,10.0,-999.0,76,-99.99,,,0.00,606,weatherlink.com 1.10,2013-05-16 21:42:00,
2013-05-16 16:57:00,84.3,76.0,29.70,SSW,203,6.0,-999.0,76,-99.99,,,0.00,566,weatherlink.com 1.10,2013-05-16 21:57:00,
2013-05-16 17:12:00,83.8,76.0,29.70,SSE,150,9.0,-999.0,76,-99.99,,,0.00,513,weatherlink.com 1.10,2013-05-16 22:12:00,
2013-05-16 17:27:00,83.2,76.0,29.70,SE,146,11.0,-999.0,78,-99.99,,,0.00,468,weatherlink.com 1.10,2013-05-16 22:27:00,
2013-05-16 17:42:00,82.6,76.0,29.69,SSE,148,11.0,-999.0,79,-99.99,,,0.00,425,weatherlink.com 1.10,2013-05-16 22:42:00,
2013-05-16 17:57:00,82.3,75.0,29.69,SE,132,3.0,-999.0,79,-99.99,,,0.00,367,weatherlink.com 1.10,2013-05-16 22:57:00,
2013-05-16 18:12:00,81.9,75.0,29.69,SE,144,9.0,-999.0,80,-99.99,,,0.00,306,weatherlink.com 1.10,2013-05-16 23:12:00,
2013-05-16 18:27:00,81.2,75.0,29.68,SE,141,9.0,-999.0,81,-99.99,,,0.00,267,weatherlink.com 1.10,2013-05-16 23:27:00,
2013-05-16 18:42:00,80.6,75.0,29.69,SSE,165,5.0,-999.0,82,-99.99,,,0.00,214,weatherlink.com 1.10,2013-05-16 23:42:00,
2013-05-16 18:57:00,79.5,74.0,29.69,South,172,4.0,-999.0,84,-99.99,,,0.00,169,weatherlink.com 1.10,2013-05-16 23:57:00,
2013-05-16 19:12:00,78.9,74.0,29.70,SSE,156,7.0,-999.0,85,-99.99,,,0.00,120,weatherlink.com 1.10,2013-05-17 00:12:00,
2013-05-16 19:27:00,78.2,74.0,29.70,ESE,111,3.0,-999.0,86,-99.99,,,0.00,69,weatherlink.com 1.10,2013-05-17 00:27:00,
2013-05-16 19:42:00,77.7,74.0,29.70,SE,140,3.0,-999.0,87,-99.99,,,0.00,42,weatherlink.com 1.10,2013-05-17 00:42:00,
2013-05-16 19:57:00,77.1,73.0,29.70,SSE,157,5.0,-999.0,88,-99.99,,,0.00,16,weatherlink.com 1.10,2013-05-17 00:57:00,
2013-05-16 20:12:00,76.5,73.0,29.71,South,178,4.0,-999.0,89,-99.99,,,0.00,0,weatherlink.com 1.10,2013-05-17 01:12:00,
2013-05-16 20:27:00,76.1,73.0,29.71,SSE,158,11.0,-999.0,90,-99.99,,,0.00,0,weatherlink.com 1.10,2013-05-17 01:27:00,
2013-05-16 20:42:00,75.9,73.0,29.72,SE,141,4.0,-999.0,91,-99.99,,,0.00,0,weatherlink.com 1.10,2013-05-17 01:42:00,
2013-05-16 20:57:00,75.8,73.0,29.72,South,173,7.0,-999.0,92,-99.99,,,0.00,0,weatherlink.com 1.10,2013-05-17 01:57:00,
2013-05-16 21:12:00,75.7,73.0,29.72,South,186,5.0,-999.0,92,-99.99,,,0.00,0,weatherlink.com 1.10,2013-05-17 02:12:00,
2013-05-16 21:27:00,75.4,73.0,29.73,South,175,9.0,-999.0,92,-99.99,,,0.00,0,weatherlink.com 1.10,2013-05-17 02:27:00,
2013-05-16 21:42:00,75.3,73.0,29.74,South,173,3.0,-999.0,92,-99.99,,,0.00,0,weatherlink.com 1.10,2013-05-17 02:42:00,
2013-05-16 21:57:00,75.1,73.0,29.75,South,171,5.0,-999.0,93,-99.99,,,0.00,0,weatherlink.com 1.10,2013-05-17 02:57:00,
2013-05-16 22:12:00,75.1,73.0,29.75,SSE,159,4.0,-999.0,93,-99.99,,,0.00,0,weatherlink.com 1.10,2013-05-17 03:12:00,
2013-05-16 22:27:00,75.2,73.0,29.75,SE,144,4.0,-999.0,93,-99.99,,,0.00,0,weatherlink.com 1.10,2013-05-17 03:27:00,
2013-05-16 22:42:00,75.2,73.0,29.76,SSE,151,6.0,-999.0,93,-99.99,,,0.00,0,weatherlink.com 1.10,2013-05-17 03:42:00,
2013-05-16 22:57:00,75.2,73.0,29.77,SSW,193,5.0,-999.0,93,-99.99,,,0.00,0,weatherlink.com 1.10,2013-05-17 03:57:00,
2013-05-16 23:12:00,75.3,73.0,29.77,ESE,104,1.0,-999.0,93,-99.99,,,0.00,0,weatherlink.com 1.10,2013-05-17 04:12:00,
2013-05-16 23:27:00,75.4,73.0,29.77,SSE,156,1.0,-999.0,93,-99.99,,,0.00,0,weatherlink.com 1.10,2013-05-17 04:27:00,
2013-05-16 23:42:00,75.3,73.0,29.77,SSW,194,5.0,-999.0,92,-99.99,,,0.00,0,weatherlink.com 1.10,2013-05-17 04:42:00,
2013-05-16 23:57:00,75.0,73.0,29.77,SSE,165,7.0,-999.0,93,-99.99,,,0.00,0,weatherlink.com 1.10,2013-05-17 04:57:00,